createdAt,value
2018-08-22T00:00:18.294Z,0.6
2018-08-22T00:02:19.064Z,1.1
2018-08-22T00:04:17.845Z,0.8
2018-08-22T00:06:17.866Z,0.5
2018-08-22T00:08:18.597Z,0.9
2018-08-22T00:10:17.803Z,0.4
2018-08-22T00:12:17.577Z,0.7
2018-08-22T00:14:19.316Z,1
2018-08-22T00:16:18.928Z,0.8
2018-08-22T00:18:18.769Z,0.7
2018-08-22T00:20:18.540Z,0.5
2018-08-22T00:22:19.357Z,0.9
2018-08-22T00:24:19.160Z,1
2018-08-22T00:26:18.665Z,0.4
2018-08-22T00:28:19.424Z,0.5
2018-08-22T00:30:19.167Z,1.1
2018-08-22T00:32:17.956Z,1
2018-08-22T00:34:18.704Z,0.8
2018-08-22T00:36:19.187Z,1.1
2018-08-22T00:38:18.982Z,1.1
2018-08-22T00:40:18.222Z,0.9
2018-08-22T00:42:18.971Z,0.7
2018-08-22T00:44:18.738Z,0.6
2018-08-22T00:46:19.229Z,0.7
2018-08-22T00:48:18.024Z,1.3
2018-08-22T00:50:18.794Z,0.9
2018-08-22T00:52:17.533Z,1.1
2018-08-22T00:54:19.299Z,0.8
2018-08-22T00:56:17.805Z,0.8
2018-08-22T00:58:18.549Z,1.2
2018-08-22T01:00:19.413Z,0.8
2018-08-22T01:02:19.231Z,1
2018-08-22T01:04:19.043Z,1.2
2018-08-22T01:06:18.095Z,0.6
2018-08-22T01:08:18.857Z,0.6
2018-08-22T01:10:19.179Z,0.8
2018-08-22T01:12:18.964Z,0.9
2018-08-22T01:14:17.706Z,1.3
2018-08-22T01:16:18.254Z,1
2018-08-22T01:18:19.117Z,1
2018-08-22T01:20:18.860Z,0.8
2018-08-22T01:22:18.627Z,0.7
2018-08-22T01:24:19.422Z,0.4
2018-08-22T01:26:17.944Z,0.7
2018-08-22T01:28:18.699Z,1.1
2018-08-22T01:30:19.466Z,0.8
2018-08-22T01:32:19.229Z,0.7
2018-08-22T01:34:19.025Z,0.9
2018-08-22T01:36:19.080Z,0.4
2018-08-22T01:38:18.863Z,0.8
2018-08-22T01:40:19.138Z,1
2018-08-22T01:42:18.927Z,0.9
2018-08-22T01:44:18.679Z,0.9
2018-08-22T01:46:19.241Z,0.9
2018-08-22T01:48:19.036Z,0.5
2018-08-22T01:50:18.787Z,0.7
2018-08-22T01:52:18.583Z,0.8
2018-08-22T01:54:19.389Z,1
2018-08-22T01:56:18.903Z,0.6
2018-08-22T01:58:18.650Z,0.8
2018-08-22T02:00:19.416Z,0.6
2018-08-22T02:02:19.194Z,0.4
2018-08-22T02:04:18.944Z,0.6
2018-08-22T02:06:18.968Z,0.7
2018-08-22T02:08:18.773Z,0.8
2018-08-22T02:10:17.993Z,1.1
2018-08-22T02:12:18.782Z,1.3
2018-08-22T02:14:18.511Z,0.8
2018-08-22T02:16:19.030Z,0.5
2018-08-22T02:18:18.892Z,0.8
2018-08-22T02:20:18.741Z,0.8
2018-08-22T02:22:18.536Z,0.7
2018-08-22T02:24:19.334Z,0.8
2018-08-22T02:26:19.492Z,0.9
2018-08-22T02:28:19.262Z,0.8
2018-08-22T02:30:19.015Z,0.5
2018-08-22T02:32:18.779Z,0.8
2018-08-22T02:34:18.526Z,0.7
2018-08-22T02:36:19.040Z,0.9
2018-08-22T02:38:18.782Z,0.9
2018-08-22T02:40:19.000Z,0.6
2018-08-22T02:42:18.762Z,0.6
2018-08-22T02:44:18.554Z,0.6
2018-08-22T02:46:18.633Z,0.8
2018-08-22T02:48:19.374Z,0.9
2018-08-22T02:50:19.179Z,1
2018-08-22T02:52:18.915Z,0.7
2018-08-22T02:54:18.684Z,0.9
2018-08-22T02:56:18.797Z,0.9
2018-08-22T02:58:18.555Z,0.8
2018-08-22T03:00:19.331Z,0.6
2018-08-22T03:02:19.136Z,1.2
2018-08-22T03:04:18.913Z,0.6
2018-08-22T03:06:19.502Z,1.9
2018-08-22T03:08:19.287Z,2.7
2018-08-22T03:10:18.532Z,1.3
2018-08-22T03:12:19.346Z,0.6
2018-08-22T03:14:19.142Z,1.3
2018-08-22T03:16:18.667Z,0.9
2018-08-22T03:18:18.537Z,1.2
2018-08-22T03:20:19.322Z,0.8
2018-08-22T03:22:19.099Z,0.9
2018-08-22T03:24:18.859Z,1
2018-08-22T03:26:19.456Z,0.8
2018-08-22T03:28:19.263Z,0.6
2018-08-22T03:30:19.092Z,0.9
2018-08-22T03:32:18.887Z,1
2018-08-22T03:34:18.669Z,1.3
2018-08-22T03:36:19.204Z,0.7
2018-08-22T03:38:18.984Z,0.6
2018-08-22T03:40:19.234Z,0.8
2018-08-22T03:42:19.073Z,1.1
2018-08-22T03:44:18.873Z,0.6
2018-08-22T03:46:18.885Z,0.7
2018-08-22T03:48:18.703Z,0.7
2018-08-22T03:50:19.522Z,0.5
2018-08-22T03:52:19.274Z,1.4
2018-08-22T03:54:19.076Z,1.3
2018-08-22T03:56:19.146Z,0.8
2018-08-22T03:58:18.916Z,0.6
2018-08-22T04:00:18.661Z,0.7
2018-08-22T04:02:19.399Z,1
2018-08-22T04:04:19.133Z,0.7
2018-08-22T04:06:18.621Z,0.9
2018-08-22T04:08:19.405Z,1
2018-08-22T04:10:18.617Z,0.7
2018-08-22T04:12:19.396Z,1.3
2018-08-22T04:14:19.152Z,1.2
2018-08-22T04:16:19.214Z,0.9
2018-08-22T04:18:19.046Z,1.2
2018-08-22T04:20:18.894Z,1.2
2018-08-22T04:22:18.651Z,1.1
2018-08-22T04:24:19.424Z,1.2
2018-08-22T04:26:19.466Z,1.1
2018-08-22T04:28:19.233Z,1.3
2018-08-22T04:30:19.028Z,0.9
2018-08-22T04:32:18.834Z,0.7
2018-08-22T04:34:18.585Z,0.8
2018-08-22T04:36:18.603Z,1
2018-08-22T04:38:19.380Z,1
2018-08-22T04:40:18.648Z,1.3
2018-08-22T04:42:19.410Z,1.5
2018-08-22T04:44:19.168Z,1.4
2018-08-22T04:46:18.685Z,1.6
2018-08-22T04:48:19.524Z,1.1
2018-08-22T04:50:18.514Z,1.5
2018-08-22T04:52:19.274Z,1.2
2018-08-22T04:54:19.034Z,1.4
2018-08-22T04:56:19.251Z,1.1
2018-08-22T04:58:19.009Z,0.9
2018-08-22T05:00:18.810Z,1
2018-08-22T05:02:18.609Z,1.1
2018-08-22T05:04:19.421Z,1
2018-08-22T05:06:19.452Z,1.1
2018-08-22T05:08:19.230Z,1.1
2018-08-22T05:10:19.513Z,1
2018-08-22T05:12:19.345Z,0.9
2018-08-22T05:14:19.113Z,0.9
2018-08-22T05:16:18.600Z,0.9
2018-08-22T05:18:19.516Z,1.3
2018-08-22T05:20:19.296Z,1.8
2018-08-22T05:22:19.037Z,0.9
2018-08-22T05:24:18.847Z,0.9
2018-08-22T05:26:18.936Z,0.7
2018-08-22T05:28:18.680Z,1.1
2018-08-22T05:30:19.631Z,1.4
2018-08-22T05:32:18.594Z,1.6
2018-08-22T05:34:19.346Z,1.3
2018-08-22T05:36:18.936Z,1
2018-08-22T05:38:18.715Z,0.9
2018-08-22T05:40:18.978Z,0.6
2018-08-22T05:42:18.754Z,0.6
2018-08-22T05:44:19.509Z,1.1
2018-08-22T05:46:18.606Z,1
2018-08-22T05:48:19.378Z,1.1
2018-08-22T05:50:19.142Z,1.1
2018-08-22T05:52:18.915Z,1
2018-08-22T05:54:18.676Z,1.2
2018-08-22T05:56:18.725Z,0.8
2018-08-22T05:58:19.552Z,0.6
2018-08-22T06:00:19.327Z,1.7
2018-08-22T06:02:19.147Z,0.9
2018-08-22T06:04:18.937Z,1.1
2018-08-22T06:06:19.010Z,1.1
2018-08-22T06:08:17.779Z,1.1
2018-08-22T06:10:19.068Z,1.2
2018-08-22T06:12:17.840Z,0.9
2018-08-22T06:14:18.628Z,1.2
2018-08-22T06:16:18.298Z,1.3
2018-08-22T06:18:19.122Z,1
2018-08-22T06:20:18.916Z,1.3
2018-08-22T06:22:18.713Z,0.9
2018-08-22T06:24:19.484Z,1
2018-08-22T06:26:18.569Z,1
2018-08-22T06:28:18.346Z,1.5
2018-08-22T06:30:19.155Z,0.9
2018-08-22T06:32:18.923Z,1.1
2018-08-22T06:34:17.673Z,0.6
2018-08-22T06:36:18.278Z,1.2
2018-08-22T06:38:18.174Z,0.7
2018-08-22T06:40:18.401Z,1
2018-08-22T06:42:18.177Z,0.8
2018-08-22T06:44:18.965Z,1.3
2018-08-22T06:46:18.115Z,0.9
2018-08-22T06:48:18.896Z,2.1
2018-08-22T06:50:17.741Z,1.3
2018-08-22T06:52:17.767Z,1.3
2018-08-22T06:54:17.549Z,1.2
2018-08-22T06:56:17.579Z,0.7
2018-08-22T06:58:18.354Z,1.1
2018-08-22T07:00:19.107Z,1
2018-08-22T07:02:17.891Z,0.9
2018-08-22T07:04:17.652Z,1.2
2018-08-22T07:06:17.730Z,0.7
2018-08-22T07:08:18.509Z,0.7
2018-08-22T07:10:18.809Z,0.6
2018-08-22T07:12:18.592Z,1.3
2018-08-22T07:14:18.356Z,1.2
2018-08-22T07:16:18.426Z,1
2018-08-22T07:18:18.244Z,1
2018-08-22T07:20:19.052Z,1.3
2018-08-22T07:22:17.837Z,1.2
2018-08-22T07:24:18.599Z,1
2018-08-22T07:26:18.689Z,0.8
2018-08-22T07:28:18.489Z,0.8
2018-08-22T07:30:18.273Z,1.6
2018-08-22T07:32:18.066Z,1
2018-08-22T07:34:18.857Z,1.5
2018-08-22T07:36:18.359Z,0.9
2018-08-22T07:38:18.132Z,2.8
2018-08-22T07:40:18.443Z,1.3
2018-08-22T07:42:18.231Z,1.8
2018-08-22T07:44:18.016Z,0.9
2018-08-22T07:46:18.225Z,1
2018-08-22T07:48:17.989Z,1.1
2018-08-22T07:50:17.873Z,1.1
2018-08-22T07:52:17.767Z,1
2018-08-22T07:54:17.538Z,0.7
2018-08-22T07:56:18.163Z,1.1
2018-08-22T07:58:17.926Z,0.7
2018-08-22T08:00:17.769Z,0.6
2018-08-22T08:02:17.595Z,1.1
2018-08-22T08:04:18.359Z,0.6
2018-08-22T08:06:17.962Z,1.2
2018-08-22T08:08:17.769Z,0.8
2018-08-22T08:10:18.010Z,0.9
2018-08-22T08:12:17.836Z,0.8
2018-08-22T08:14:17.628Z,0.8
2018-08-22T08:16:17.734Z,1.6
2018-08-22T08:18:17.669Z,0.8
2018-08-22T08:20:18.443Z,1.1
2018-08-22T08:22:18.192Z,0.6
2018-08-22T08:24:18.012Z,1
2018-08-22T08:26:17.670Z,0.7
2018-08-22T08:28:17.584Z,1.2
2018-08-22T08:30:18.382Z,1.8
2018-08-22T08:32:18.151Z,1.1
2018-08-22T08:34:17.929Z,1
2018-08-22T08:36:18.132Z,0.4
2018-08-22T08:38:17.918Z,0.9
2018-08-22T08:40:18.197Z,0.7
2018-08-22T08:42:17.967Z,0.6
2018-08-22T08:44:17.801Z,0.6
2018-08-22T08:46:18.374Z,0.8
2018-08-22T08:48:18.158Z,0.7
2018-08-22T08:50:17.929Z,0.6
2018-08-22T08:52:17.736Z,0.8
2018-08-22T08:54:18.505Z,0.4
2018-08-22T08:56:18.124Z,0.7
2018-08-22T08:58:17.999Z,0.6
2018-08-22T09:00:17.872Z,0.9
2018-08-22T09:02:17.687Z,0.6
2018-08-22T09:04:18.549Z,4.1
2018-08-22T09:06:18.179Z,0.4
2018-08-22T09:08:17.994Z,0.5
2018-08-22T09:10:18.237Z,0.3
2018-08-22T09:12:18.022Z,0.7
2018-08-22T09:14:18.033Z,0.3
2018-08-22T09:16:18.200Z,0.9
2018-08-22T09:18:18.057Z,1.2
2018-08-22T09:20:17.857Z,0.2
2018-08-22T09:22:17.633Z,0.6
2018-08-22T09:24:18.437Z,0.7
2018-08-22T09:26:17.757Z,0.7
2018-08-22T09:28:17.553Z,0.4
2018-08-22T09:30:18.337Z,0.5
2018-08-22T09:32:18.120Z,0.4
2018-08-22T09:34:17.911Z,0.5
2018-08-22T09:36:18.481Z,0.8
2018-08-22T09:38:18.259Z,1.1
2018-08-22T09:40:17.524Z,0.8
2018-08-22T09:42:18.338Z,0.6
2018-08-22T09:44:18.105Z,0.8
2018-08-22T09:46:17.790Z,0.4
2018-08-22T09:48:17.582Z,0.5
2018-08-22T09:50:18.417Z,0.4
2018-08-22T09:52:18.258Z,0.5
2018-08-22T09:54:18.026Z,0.5
2018-08-22T09:56:17.551Z,0.5
2018-08-22T09:58:18.488Z,0.4
2018-08-22T10:00:18.586Z,0.3
2018-08-22T10:02:17.639Z,0.4
2018-08-22T10:04:18.450Z,0.4
2018-08-22T10:06:17.776Z,0.6
2018-08-22T10:08:17.696Z,0.4
2018-08-22T10:10:17.963Z,0.2
2018-08-22T10:12:17.743Z,0.4
2018-08-22T10:14:18.551Z,0.2
2018-08-22T10:16:18.169Z,0.7
2018-08-22T10:18:18.106Z,0.3
2018-08-22T10:20:17.927Z,0.3
2018-08-22T10:22:17.715Z,0.5
2018-08-22T10:24:18.503Z,0.4
2018-08-22T10:26:18.092Z,0.4
2018-08-22T10:28:17.898Z,0.2
2018-08-22T10:30:17.685Z,0.5
2018-08-22T10:32:18.483Z,0.4
2018-08-22T10:34:18.322Z,0.7
2018-08-22T10:36:17.568Z,0.3
2018-08-22T10:38:18.407Z,0.5
2018-08-22T10:40:17.740Z,0.7
2018-08-22T10:42:18.523Z,0.4
2018-08-22T10:44:18.344Z,0.3
2018-08-22T10:46:17.925Z,0.3
2018-08-22T10:48:17.728Z,0.9
2018-08-22T10:50:18.578Z,0.5
2018-08-22T10:52:18.383Z,0.5
2018-08-22T10:54:18.179Z,0.4
2018-08-22T10:56:17.739Z,0.3
2018-08-22T10:58:18.552Z,0.5
2018-08-22T11:00:18.360Z,0.4
2018-08-22T11:02:18.183Z,0.3
2018-08-22T11:04:17.997Z,0.4
2018-08-22T11:06:18.560Z,0.4
2018-08-22T11:08:18.395Z,0.3
2018-08-22T11:10:17.705Z,0.3
2018-08-22T11:12:18.509Z,0.6
2018-08-22T11:14:18.325Z,0.4
2018-08-22T11:16:17.862Z,0.6
2018-08-22T11:18:17.727Z,0.3
2018-08-22T11:20:18.520Z,0.5
2018-08-22T11:22:18.366Z,0.5
2018-08-22T11:24:18.244Z,0.3
2018-08-22T11:26:18.365Z,0.5
2018-08-22T11:28:18.189Z,0.4
2018-08-22T11:30:18.090Z,1.6
2018-08-22T11:32:17.889Z,0.4
2018-08-22T11:34:17.691Z,0.3
2018-08-22T11:36:17.822Z,0.5
2018-08-22T11:38:17.664Z,0.2
2018-08-22T11:40:18.076Z,0.5
2018-08-22T11:42:17.889Z,0.5
2018-08-22T11:44:17.701Z,0.4
2018-08-22T11:46:17.825Z,0.7
2018-08-22T11:48:17.630Z,0.3
2018-08-22T11:50:18.422Z,0.3
2018-08-22T11:52:18.231Z,0.9
2018-08-22T11:54:18.069Z,0.8
2018-08-22T11:56:18.134Z,0.3
2018-08-22T11:58:17.910Z,0.7
2018-08-22T12:00:17.713Z,0.7
2018-08-22T12:02:18.490Z,0.4
2018-08-22T12:04:18.284Z,0.3
2018-08-22T12:06:17.874Z,1.1
2018-08-22T12:08:17.674Z,0.3
2018-08-22T12:10:17.970Z,0.8
2018-08-22T12:12:17.751Z,0.5
2018-08-22T12:14:18.550Z,0.4
2018-08-22T12:16:17.657Z,0.5
2018-08-22T12:18:18.544Z,0.7
2018-08-22T12:20:18.331Z,0.4
2018-08-22T12:22:18.138Z,0.4
2018-08-22T12:24:17.943Z,0.3
2018-08-22T12:26:18.058Z,0.5
2018-08-22T12:28:17.842Z,0.3
2018-08-22T12:30:17.673Z,0.4
2018-08-22T12:32:18.494Z,0.2
2018-08-22T12:34:18.312Z,0.3
2018-08-22T12:36:17.898Z,0.3
2018-08-22T12:38:17.687Z,0.4
2018-08-22T12:40:18.007Z,0.3
2018-08-22T12:42:17.841Z,0.4
2018-08-22T12:44:17.627Z,0.8
2018-08-22T12:46:18.359Z,0.4
2018-08-22T12:48:18.171Z,0.4
2018-08-22T12:50:18.066Z,0.3
2018-08-22T12:52:17.960Z,0.4
2018-08-22T12:54:17.754Z,0.3
2018-08-22T12:56:18.301Z,0.5
2018-08-22T12:58:18.148Z,0.4
2018-08-22T13:00:17.960Z,0.2
2018-08-22T13:02:17.775Z,0.5
2018-08-22T13:04:17.590Z,0.5
2018-08-22T13:06:17.742Z,0.7
2018-08-22T13:08:18.549Z,0.3
2018-08-22T13:10:17.853Z,0.5
2018-08-22T13:12:17.633Z,0.3
2018-08-22T13:14:18.436Z,0.3
2018-08-22T13:16:18.102Z,0.4
2018-08-22T13:18:17.983Z,0.3
2018-08-22T13:20:17.854Z,0.9
2018-08-22T13:22:17.660Z,0.3
2018-08-22T13:24:18.498Z,0.6
2018-08-22T13:26:18.080Z,0.3
2018-08-22T13:28:17.909Z,0.4
2018-08-22T13:30:17.779Z,0.3
2018-08-22T13:32:17.688Z,0.5
2018-08-22T13:34:18.517Z,0.3
2018-08-22T13:36:18.461Z,0.4
2018-08-22T13:38:17.590Z,0.5
2018-08-22T13:40:17.934Z,0.5
2018-08-22T13:42:17.834Z,0.2
2018-08-22T13:44:17.762Z,0.2
2018-08-22T13:46:18.357Z,0.6
2018-08-22T13:48:18.214Z,0.4
2018-08-22T13:50:18.030Z,0.2
2018-08-22T13:52:17.852Z,0.3
2018-08-22T13:54:17.700Z,0.6
2018-08-22T13:56:17.840Z,0.5
2018-08-22T13:58:17.702Z,0.3
2018-08-22T14:00:18.574Z,0.5
2018-08-22T14:02:18.398Z,0.3
2018-08-22T14:04:18.218Z,0.4
2018-08-22T14:06:17.818Z,0.5
2018-08-22T14:08:17.656Z,0.7
2018-08-22T14:10:17.976Z,0.5
2018-08-22T14:12:17.824Z,0.4
2018-08-22T14:14:17.619Z,0.4
2018-08-22T14:16:18.237Z,0.3
2018-08-22T14:18:18.108Z,0.8
2018-08-22T14:20:17.985Z,0.6
2018-08-22T14:22:17.852Z,0.3
2018-08-22T14:24:17.717Z,0.5
2018-08-22T14:26:18.305Z,0.3
2018-08-22T14:28:18.207Z,0.2
2018-08-22T14:30:18.209Z,0.2
2018-08-22T14:32:18.100Z,0.5
2018-08-22T14:34:17.928Z,0.5
2018-08-22T14:36:18.021Z,0.3
2018-08-22T14:38:17.867Z,0.4
2018-08-22T14:40:18.181Z,1
2018-08-22T14:42:18.034Z,0.4
2018-08-22T14:44:17.873Z,0.4
2018-08-22T14:46:17.722Z,0.3
2018-08-22T14:48:18.574Z,0.7
2018-08-22T14:50:18.407Z,0.3
2018-08-22T14:52:18.245Z,0.3
2018-08-22T14:54:18.080Z,0.4
2018-08-22T14:56:18.410Z,0.6
2018-08-22T14:58:18.538Z,0.3
2018-08-22T15:00:18.375Z,0.3
2018-08-22T15:02:18.271Z,0.3
2018-08-22T15:04:18.374Z,0.2
2018-08-22T15:06:17.971Z,0.4
2018-08-22T15:08:17.805Z,0.2
2018-08-22T15:10:18.203Z,0.3
2018-08-22T15:12:18.052Z,0.3
2018-08-22T15:14:17.848Z,0.5
2018-08-22T15:16:18.436Z,0.2
2018-08-22T15:18:18.366Z,0.3
2018-08-22T15:20:18.204Z,0.4
2018-08-22T15:22:18.081Z,0.3
2018-08-22T15:24:17.916Z,0.4
2018-08-22T15:26:18.002Z,0.2
2018-08-22T15:28:17.832Z,0.4
2018-08-22T15:30:17.713Z,0.2
2018-08-22T15:32:18.533Z,0.7
2018-08-22T15:34:18.373Z,0.3
2018-08-22T15:36:18.544Z,0.5
2018-08-22T15:38:18.401Z,0.3
2018-08-22T15:40:17.874Z,0.3
2018-08-22T15:42:17.697Z,0.3
2018-08-22T15:44:18.511Z,0.6
2018-08-22T15:46:17.616Z,0.4
2018-08-22T15:48:18.441Z,0.4
2018-08-22T15:50:18.301Z,0.3
2018-08-22T15:52:18.125Z,0.4
2018-08-22T15:54:17.959Z,0.6
2018-08-22T15:56:18.573Z,0.2
2018-08-22T15:58:18.383Z,0.3
2018-08-22T16:00:18.228Z,0.3
2018-08-22T16:02:18.092Z,2.2
2018-08-22T16:04:17.923Z,0.3
2018-08-22T16:06:18.549Z,0.4
2018-08-22T16:08:18.445Z,0.5
2018-08-22T16:10:17.798Z,0.7
2018-08-22T16:12:18.440Z,0.4
2018-08-22T16:14:18.300Z,0.3
2018-08-22T16:16:18.409Z,0.4
2018-08-22T16:18:18.301Z,0.4
2018-08-22T16:20:18.117Z,0.7
2018-08-22T16:22:17.984Z,0.4
2018-08-22T16:24:17.981Z,0.3
2018-08-22T16:26:17.798Z,0.4
2018-08-22T16:28:17.687Z,0.3
2018-08-22T16:30:17.692Z,0.4
2018-08-22T16:32:18.519Z,1
2018-08-22T16:34:18.332Z,0.4
2018-08-22T16:36:17.893Z,0.3
2018-08-22T16:38:17.723Z,0.3
2018-08-22T16:40:18.072Z,0.5
2018-08-22T16:42:17.920Z,0.4
2018-08-22T16:44:17.756Z,0.3
2018-08-22T16:46:18.384Z,0.7
2018-08-22T16:48:18.169Z,0.7
2018-08-22T16:50:17.984Z,0.5
2018-08-22T16:52:17.859Z,0.5
2018-08-22T16:54:17.709Z,0.7
2018-08-22T16:56:18.245Z,0.2
2018-08-22T16:58:18.090Z,0.2
2018-08-22T17:00:17.907Z,0.3
2018-08-22T17:02:17.764Z,0.4
2018-08-22T17:04:17.599Z,0.4
2018-08-22T17:06:17.704Z,0.4
2018-08-22T17:08:18.535Z,0.6
2018-08-22T17:10:17.819Z,0.3
2018-08-22T17:12:17.624Z,0.4
2018-08-22T17:14:18.458Z,0.2
2018-08-22T17:16:18.131Z,0.3
2018-08-22T17:18:18.058Z,0.6
2018-08-22T17:20:17.857Z,0.4
2018-08-22T17:22:17.699Z,0.2
2018-08-22T17:24:18.518Z,0.5
2018-08-22T17:26:18.136Z,0.3
2018-08-22T17:28:17.962Z,0.4
2018-08-22T17:30:17.800Z,0.4
2018-08-22T17:32:17.607Z,0.9
2018-08-22T17:34:18.437Z,0.2
2018-08-22T17:36:17.996Z,0.7
2018-08-22T17:38:17.836Z,0.3
2018-08-22T17:40:18.219Z,0.5
2018-08-22T17:42:18.042Z,0.4
2018-08-22T17:44:17.907Z,0.7
2018-08-22T17:46:18.180Z,1
2018-08-22T17:48:17.976Z,0.6
2018-08-22T17:50:17.774Z,0.4
2018-08-22T17:52:17.571Z,0.7
2018-08-22T17:54:18.387Z,0.5
2018-08-22T17:56:18.074Z,0.4
2018-08-22T17:58:17.895Z,0.5
2018-08-22T18:00:17.796Z,0.5
2018-08-22T18:02:17.622Z,0.7
2018-08-22T18:04:18.450Z,0.5
2018-08-22T18:06:17.606Z,0.6
2018-08-22T18:08:18.465Z,0.3
2018-08-22T18:10:17.733Z,0.6
2018-08-22T18:12:18.590Z,0.4
2018-08-22T18:14:18.463Z,0.5
2018-08-22T18:16:17.628Z,0.3
2018-08-22T18:18:18.518Z,0.5
2018-08-22T18:20:18.334Z,0.6
2018-08-22T18:22:18.150Z,1.3
2018-08-22T18:24:17.949Z,1.2
2018-08-22T18:26:17.765Z,1.5
2018-08-22T18:28:17.570Z,1.8
2018-08-22T18:30:18.373Z,0.9
2018-08-22T18:32:18.176Z,0.5
2018-08-22T18:34:17.994Z,0.8
2018-08-22T18:36:17.635Z,1
2018-08-22T18:38:17.627Z,0.8
2018-08-22T18:40:17.958Z,0.7
2018-08-22T18:42:17.766Z,0.3
2018-08-22T18:44:17.587Z,0.7
2018-08-22T18:46:17.859Z,0.3
2018-08-22T18:48:17.646Z,0.6
2018-08-22T18:50:18.440Z,1
2018-08-22T18:52:18.259Z,0.7
2018-08-22T18:54:18.047Z,0.5
2018-08-22T18:56:17.688Z,0.5
2018-08-22T18:58:18.523Z,0.7
2018-08-22T19:00:18.329Z,0.5
2018-08-22T19:02:18.211Z,0.4
2018-08-22T19:04:18.034Z,0.9
2018-08-22T19:06:18.570Z,0.7
2018-08-22T19:08:18.417Z,1
2018-08-22T19:10:17.687Z,2.2
2018-08-22T19:12:18.470Z,3
2018-08-22T19:14:18.289Z,3.2
2018-08-22T19:16:18.403Z,1.7
2018-08-22T19:18:18.288Z,1.9
2018-08-22T19:20:18.083Z,0.7
2018-08-22T19:22:17.867Z,0.9
2018-08-22T19:24:17.670Z,1
2018-08-22T19:26:17.817Z,1.5
2018-08-22T19:28:17.621Z,0.9
2018-08-22T19:30:18.442Z,1.4
2018-08-22T19:32:18.267Z,0.7
2018-08-22T19:34:18.043Z,0.9
2018-08-22T19:36:17.661Z,2.2
2018-08-22T19:38:18.452Z,0.9
2018-08-22T19:40:17.782Z,0.9
2018-08-22T19:42:17.569Z,0.7
2018-08-22T19:44:18.379Z,1.1
2018-08-22T19:46:17.900Z,1.6
2018-08-22T19:48:17.729Z,2.8
2018-08-22T19:50:18.541Z,3.7
2018-08-22T19:52:18.362Z,2.9
2018-08-22T19:54:18.161Z,2
2018-08-22T19:56:17.699Z,1.4
2018-08-22T19:58:17.628Z,1
2018-08-22T20:00:18.527Z,1.1
2018-08-22T20:02:17.636Z,1.6
2018-08-22T20:04:18.434Z,1.9
2018-08-22T20:06:18.455Z,1.1
2018-08-22T20:08:18.281Z,2.6
2018-08-22T20:10:18.546Z,2
2018-08-22T20:12:18.331Z,2.3
2018-08-22T20:14:18.134Z,2.2
2018-08-22T20:16:18.238Z,1.5
2018-08-22T20:18:18.179Z,1.7
2018-08-22T20:20:17.994Z,1.2
2018-08-22T20:22:17.776Z,1.6
2018-08-22T20:24:17.678Z,1.2
2018-08-22T20:26:17.662Z,1.4
2018-08-22T20:28:18.456Z,1.5
2018-08-22T20:30:18.336Z,1.7
2018-08-22T20:32:18.194Z,1.6
2018-08-22T20:34:17.982Z,1
2018-08-22T20:36:17.559Z,1.2
2018-08-22T20:38:18.366Z,1.2
2018-08-22T20:40:17.618Z,1.6
2018-08-22T20:42:18.445Z,1.4
2018-08-22T20:44:18.257Z,1.2
2018-08-22T20:46:17.824Z,1
2018-08-22T20:48:17.619Z,1.6
2018-08-22T20:50:18.535Z,2.3
2018-08-22T20:52:17.610Z,1.9
2018-08-22T20:54:18.397Z,1.9
2018-08-22T20:56:18.008Z,1.7
2018-08-22T20:58:17.778Z,2
2018-08-22T21:00:17.661Z,1.7
2018-08-22T21:02:18.180Z,1.1
2018-08-22T21:04:18.068Z,1.5
2018-08-22T21:06:18.156Z,1.5
2018-08-22T21:08:17.980Z,1.4
2018-08-22T21:10:18.364Z,1.5
2018-08-22T21:12:18.152Z,1.8
2018-08-22T21:14:17.927Z,1.5
2018-08-22T21:16:18.448Z,1.4
2018-08-22T21:18:18.302Z,1.6
2018-08-22T21:20:18.119Z,1.3
2018-08-22T21:22:17.953Z,1.5
2018-08-22T21:24:17.779Z,1.5
2018-08-22T21:26:17.716Z,1.2
2018-08-22T21:28:18.491Z,1.4
2018-08-22T21:30:18.370Z,1.7
2018-08-22T21:32:18.258Z,1.5
2018-08-22T21:34:18.059Z,1.3
2018-08-22T21:36:17.904Z,1.9
2018-08-22T21:38:17.728Z,1.7
2018-08-22T21:40:17.980Z,1.2
2018-08-22T21:42:17.787Z,1.5
2018-08-22T21:44:17.572Z,1.5
2018-08-22T21:46:17.702Z,1.7
2018-08-22T21:48:18.513Z,1.7
2018-08-22T21:50:18.400Z,2
2018-08-22T21:52:18.211Z,1.5
2018-08-22T21:54:18.170Z,1.6
2018-08-22T21:56:18.097Z,1.7
2018-08-22T21:58:17.904Z,1.9
2018-08-22T22:00:17.755Z,2.5
2018-08-22T22:02:18.545Z,1.9
2018-08-22T22:04:18.352Z,1.2
2018-08-22T22:06:18.140Z,1.6
2018-08-22T22:08:17.928Z,1.4
2018-08-22T22:10:18.202Z,0.9
2018-08-22T22:12:18.004Z,1.7
2018-08-22T22:14:17.812Z,1.8
2018-08-22T22:16:18.340Z,2.1
2018-08-22T22:18:18.242Z,1.4
2018-08-22T22:20:18.019Z,1.7
2018-08-22T22:22:17.849Z,1.6
2018-08-22T22:24:17.620Z,1.4
2018-08-22T22:26:18.188Z,2.3
2018-08-22T22:28:18.009Z,2
2018-08-22T22:30:17.797Z,1.6
2018-08-22T22:32:17.572Z,1.5
2018-08-22T22:34:18.392Z,1.2
2018-08-22T22:36:17.931Z,1.3
2018-08-22T22:38:17.692Z,1.6
2018-08-22T22:40:17.957Z,1.3
2018-08-22T22:42:17.757Z,1.9
2018-08-22T22:44:17.550Z,1.5
2018-08-22T22:46:17.697Z,1.6
2018-08-22T22:48:18.481Z,1
2018-08-22T22:50:18.322Z,1.5
2018-08-22T22:52:18.091Z,1.6
2018-08-22T22:54:17.863Z,1.5
2018-08-22T22:56:18.416Z,1.6
2018-08-22T22:58:18.210Z,1.5
2018-08-22T23:00:18.101Z,1.4
2018-08-22T23:02:17.921Z,1.5
2018-08-22T23:04:17.693Z,1.1
2018-08-22T23:06:17.764Z,1.6
2018-08-22T23:08:17.541Z,0.9
2018-08-22T23:10:17.842Z,1.4
2018-08-22T23:12:17.687Z,1.4
2018-08-22T23:14:18.477Z,1.8
2018-08-22T23:16:17.986Z,1.5
2018-08-22T23:18:17.857Z,1.5
2018-08-22T23:20:17.688Z,1
2018-08-22T23:22:18.453Z,1.4
2018-08-22T23:24:18.244Z,1.5
2018-08-22T23:26:18.246Z,1.5
2018-08-22T23:28:18.067Z,1.8
2018-08-22T23:30:17.900Z,1.3
2018-08-22T23:32:17.660Z,1.1
2018-08-22T23:34:18.428Z,1.4
2018-08-22T23:36:18.464Z,1.9
2018-08-22T23:38:18.210Z,1.7
2018-08-22T23:40:18.498Z,1.4
2018-08-22T23:42:18.251Z,1.2
2018-08-22T23:44:18.017Z,1.4
2018-08-22T23:46:17.683Z,1.3
2018-08-22T23:48:18.426Z,1.3
2018-08-22T23:50:18.199Z,1.7
2018-08-22T23:52:18.018Z,1.4
2018-08-22T23:54:17.801Z,0.9
2018-08-22T23:56:18.062Z,1.9
2018-08-22T23:58:17.856Z,1.4
